Overview Statistics Trail Chart Weather Telemetry Raw packets
 

This is the latest recevied weather packets stored in our database for station/object ED1ZAI-13. If no packets are shown the sender has not sent any weather packets the latest 10 day(s).

<< 18 19 20 21 22 23 24 >>
Time Temp. Humidity Pressure Rain* Wind** Luminosity Snow
1788331649 17.22° C 71% 1004.4 hPa - - - -
1788331049 17.22° C 71% 1004.5 hPa - - - -
1788330599 16.67° C 72% 1004.4 hPa - - - -
1788330449 16.67° C 72% 1004.4 hPa - - - -
1788329848 16.67° C 73% 1004.4 hPa - - - -
1788329248 16.11° C 73% 1004.5 hPa - - - -
1788328650 16.11° C 74% 1004.5 hPa - - - -
1788328050 15.56° C 73% 1004.4 hPa - - - -
1788327449 15.56° C 72% 1004.3 hPa - - - -
1788326849 16.11° C 72% 1004.1 hPa - - - -
1788326249 16.11° C 71% 1004 hPa - - - -
1788325648 16.67° C 70% 1004 hPa - - - -
1788325048 17.22° C 68% 1004.3 hPa - - - -
1788324450 17.78° C 66% 1004.9 hPa - - - -
1788323850 17.78° C 68% 1004.1 hPa - - - -
1788323249 17.22° C 68% 1004.3 hPa - - - -
1788322649 17.22° C 68% 1004.2 hPa - - - -
1788322049 17.22° C 69% 1004 hPa - - - -
1788321449 16.67° C 69% 1004.4 hPa - - - -
1788320848 17.22° C 66% 1005.2 hPa - - - -
1788320248 17.78° C 65% 1005.5 hPa - - - -
1788319650 17.78° C 67% 1004.4 hPa - - - -
1788319050 17.22° C 68% 1004.2 hPa - - - -
1788318449 16.67° C 69% 1004.1 hPa - - - -
1788317849 16.67° C 69% 1004.1 hPa - - - -

* Rain since midnight (hover to see other rain measurements)
** Current wind speed in m/s (hover to see current wind gust speed)